AAR747 RKSI-VTSP
Flight info
| Callsign | AAR747 |
|---|---|
| Flight time | N/A |
| Altitude | 38000 |
| Route | BOPTA3H BOPTA Z51 BEDES Y711 MUGUS Y742 SALMI Q11 MUNNA/N0487F400 Q11 TACLE B591 HCN G86 KAPLI DCT MADRU DCT SULUX DCT IGLEG DCT IKELA/K0898F400 A1 PAPRA/N0484F400 R575 SMU W32 SAPUD Y8 SAVSA SAVSA1C |
| Aircraft | A359/H-SDE1E2E3FGHIJ1J2J3J4J5M1P2RWXYZ/LB2D1G1 |
Departure
| Time | N/A |
|---|---|
| Airport | Incheon International Airport (RKSI) |
Arrival
| Time | 2026-05-06 08:32 |
|---|---|
| Airport | Phuket International Airport (VTSP) |
| Time | Latitude | Longitude | Altitude | Speed | Heading |
|---|---|---|---|---|---|
| 2026-05-06 07:41 | 10.58709 | 101.61984 | 39860 ft | 487 kts | 232° |
| 2026-05-06 07:41 | 10.56651 | 101.59251 | 39860 ft | 487 kts | 232° |
| 2026-05-06 07:41 | 10.52531 | 101.53779 | 39868 ft | 487 kts | 232° |
| 2026-05-06 07:42 | 10.48410 | 101.48305 | 39868 ft | 487 kts | 232° |
| 2026-05-06 07:42 | 10.44315 | 101.42873 | 39869 ft | 487 kts | 232° |
| 2026-05-06 07:43 | 10.40193 | 101.37409 | 39870 ft | 487 kts | 232° |
| 2026-05-06 07:43 | 10.36065 | 101.31944 | 39859 ft | 488 kts | 232° |
| 2026-05-06 07:44 | 10.31939 | 101.26479 | 39859 ft | 488 kts | 232° |
| 2026-05-06 07:44 | 10.27809 | 101.21011 | 39859 ft | 488 kts | 232° |
| 2026-05-06 07:45 | 10.23685 | 101.15551 | 39860 ft | 487 kts | 232° |
| 2026-05-06 07:45 | 10.19537 | 101.10099 | 39860 ft | 488 kts | 231° |
| 2026-05-06 07:46 | 10.15240 | 101.04768 | 39859 ft | 488 kts | 230° |
| 2026-05-06 07:46 | 10.10906 | 100.99477 | 39859 ft | 488 kts | 230° |
| 2026-05-06 07:47 | 10.06592 | 100.94164 | 39853 ft | 488 kts | 230° |
| 2026-05-06 07:47 | 10.02285 | 100.88833 | 39853 ft | 488 kts | 230° |
| 2026-05-06 07:48 | 9.97987 | 100.83507 | 39853 ft | 488 kts | 230° |
| 2026-05-06 07:48 | 9.93684 | 100.78175 | 39849 ft | 489 kts | 230° |
| 2026-05-06 07:49 | 9.89397 | 100.72869 | 39846 ft | 490 kts | 230° |
| 2026-05-06 07:49 | 9.85074 | 100.67525 | 39848 ft | 490 kts | 230° |
| 2026-05-06 07:50 | 9.80749 | 100.62178 | 39848 ft | 490 kts | 230° |
| 2026-05-06 07:50 | 9.76426 | 100.56839 | 39850 ft | 490 kts | 230° |
| 2026-05-06 07:51 | 9.72147 | 100.51467 | 39844 ft | 490 kts | 234° |
| 2026-05-06 07:51 | 9.68948 | 100.45381 | 39847 ft | 490 kts | 248° |
| 2026-05-06 07:52 | 9.66512 | 100.38934 | 39854 ft | 491 kts | 250° |
| 2026-05-06 07:52 | 9.64197 | 100.32432 | 39849 ft | 490 kts | 250° |
| 2026-05-06 07:53 | 9.61871 | 100.25940 | 39853 ft | 490 kts | 250° |
| 2026-05-06 07:53 | 9.59519 | 100.19438 | 39860 ft | 491 kts | 250° |
| 2026-05-06 07:54 | 9.57178 | 100.12994 | 39861 ft | 490 kts | 249° |
| 2026-05-06 07:54 | 9.54823 | 100.06516 | 39861 ft | 491 kts | 249° |
| 2026-05-06 07:55 | 9.52205 | 100.00111 | 39860 ft | 492 kts | 245° |
| 2026-05-06 07:55 | 9.49285 | 99.93855 | 39852 ft | 491 kts | 244° |
| 2026-05-06 07:56 | 9.46384 | 99.87603 | 39847 ft | 490 kts | 245° |
| 2026-05-06 07:56 | 9.43537 | 99.81328 | 39849 ft | 490 kts | 245° |
| 2026-05-06 07:57 | 9.40707 | 99.75036 | 39845 ft | 491 kts | 245° |
| 2026-05-06 07:57 | 9.37879 | 99.68746 | 39843 ft | 491 kts | 245° |
| 2026-05-06 07:58 | 9.35052 | 99.62458 | 39834 ft | 491 kts | 245° |
| 2026-05-06 07:58 | 9.32217 | 99.56158 | 39818 ft | 492 kts | 245° |
| 2026-05-06 07:59 | 9.29373 | 99.49856 | 39814 ft | 492 kts | 245° |
| 2026-05-06 07:59 | 9.26527 | 99.43556 | 39829 ft | 492 kts | 245° |
| 2026-05-06 08:00 | 9.23711 | 99.37309 | 39005 ft | 480 kts | 245° |
| 2026-05-06 08:00 | 9.22322 | 99.34237 | 37735 ft | 482 kts | 245° |
| 2026-05-06 08:00 | 9.20923 | 99.31138 | 36505 ft | 485 kts | 245° |
| 2026-05-06 08:01 | 9.19531 | 99.28052 | 35671 ft | 491 kts | 245° |
| 2026-05-06 08:01 | 9.18105 | 99.24892 | 34917 ft | 497 kts | 245° |
| 2026-05-06 08:01 | 9.16663 | 99.21699 | 34170 ft | 502 kts | 245° |
| 2026-05-06 08:01 | 9.15204 | 99.18467 | 33421 ft | 506 kts | 245° |
| 2026-05-06 08:02 | 9.14021 | 99.15054 | 32662 ft | 511 kts | 257° |
| 2026-05-06 08:02 | 9.13518 | 99.11470 | 31919 ft | 514 kts | 267° |
| 2026-05-06 08:02 | 9.13487 | 99.07932 | 31170 ft | 507 kts | 275° |
| 2026-05-06 08:02 | 9.14188 | 99.04468 | 30425 ft | 501 kts | 289° |
| 2026-05-06 08:03 | 9.15527 | 99.01245 | 29678 ft | 494 kts | 298° |
| 2026-05-06 08:03 | 9.17198 | 98.98230 | 28927 ft | 489 kts | 301° |
| 2026-05-06 08:03 | 9.19076 | 98.95387 | 28173 ft | 483 kts | 310° |
| 2026-05-06 08:03 | 9.21517 | 98.93102 | 27419 ft | 475 kts | 326° |
| 2026-05-06 08:04 | 9.24426 | 98.91600 | 26666 ft | 468 kts | 342° |
| 2026-05-06 08:04 | 9.27562 | 98.90763 | 25930 ft | 465 kts | 348° |
| 2026-05-06 08:04 | 9.30746 | 98.90265 | 25172 ft | 462 kts | 357° |
| 2026-05-06 08:04 | 9.33935 | 98.90367 | 24426 ft | 456 kts | 7° |
| 2026-05-06 08:05 | 9.37019 | 98.91054 | 23676 ft | 452 kts | 18° |
| 2026-05-06 08:05 | 9.39964 | 98.92126 | 22921 ft | 446 kts | 22° |
| 2026-05-06 08:05 | 9.42612 | 98.93671 | 22169 ft | 437 kts | 39° |
| 2026-05-06 08:05 | 9.44658 | 98.95881 | 21449 ft | 428 kts | 57° |
| 2026-05-06 08:06 | 9.45921 | 98.98600 | 20949 ft | 426 kts | 75° |
| 2026-05-06 08:06 | 9.46293 | 99.01536 | 20556 ft | 418 kts | 92° |
| 2026-05-06 08:06 | 9.45765 | 99.04391 | 20187 ft | 413 kts | 110° |
| 2026-05-06 08:06 | 9.44655 | 99.07064 | 19983 ft | 410 kts | 116° |
| 2026-05-06 08:07 | 9.43015 | 99.09416 | 19979 ft | 411 kts | 135° |
| 2026-05-06 08:07 | 9.40778 | 99.11218 | 19976 ft | 412 kts | 146° |
| 2026-05-06 08:07 | 9.38326 | 99.12722 | 19977 ft | 413 kts | 150° |
| 2026-05-06 08:07 | 9.35717 | 99.13820 | 19766 ft | 413 kts | 166° |
| 2026-05-06 08:08 | 9.32827 | 99.14129 | 19519 ft | 412 kts | 179° |
| 2026-05-06 08:08 | 9.30001 | 99.14015 | 19276 ft | 412 kts | 183° |
| 2026-05-06 08:08 | 9.27149 | 99.13783 | 19019 ft | 411 kts | 184° |
| 2026-05-06 08:08 | 9.24263 | 99.13576 | 18773 ft | 409 kts | 182° |
| 2026-05-06 08:09 | 9.21464 | 99.13453 | 18521 ft | 407 kts | 180° |
| 2026-05-06 08:09 | 9.18644 | 99.13402 | 18267 ft | 405 kts | 179° |
| 2026-05-06 08:09 | 9.15837 | 99.13288 | 18009 ft | 404 kts | 185° |
| 2026-05-06 08:09 | 9.13102 | 99.12663 | 17762 ft | 404 kts | 198° |
| 2026-05-06 08:10 | 9.10574 | 99.11420 | 17522 ft | 404 kts | 209° |
| 2026-05-06 08:10 | 9.08237 | 99.09845 | 17264 ft | 404 kts | 215° |
| 2026-05-06 08:10 | 9.06026 | 99.08103 | 17016 ft | 403 kts | 218° |
| 2026-05-06 08:10 | 9.03874 | 99.06284 | 16767 ft | 402 kts | 219° |
| 2026-05-06 08:11 | 9.01748 | 99.04456 | 16516 ft | 400 kts | 219° |
| 2026-05-06 08:11 | 8.99628 | 99.02644 | 16266 ft | 399 kts | 219° |
| 2026-05-06 08:11 | 8.97497 | 99.00848 | 16015 ft | 398 kts | 218° |
| 2026-05-06 08:11 | 8.95359 | 98.99072 | 15767 ft | 396 kts | 218° |
| 2026-05-06 08:12 | 8.93228 | 98.97317 | 15511 ft | 395 kts | 218° |
| 2026-05-06 08:12 | 8.91095 | 98.95568 | 15265 ft | 394 kts | 218° |
| 2026-05-06 08:12 | 8.88971 | 98.93832 | 15015 ft | 392 kts | 217° |
| 2026-05-06 08:12 | 8.86856 | 98.92103 | 14758 ft | 391 kts | 218° |
| 2026-05-06 08:13 | 8.84743 | 98.90376 | 14501 ft | 390 kts | 217° |
| 2026-05-06 08:13 | 8.82642 | 98.88658 | 14278 ft | 388 kts | 217° |
| 2026-05-06 08:13 | 8.80545 | 98.86943 | 14018 ft | 387 kts | 217° |
| 2026-05-06 08:13 | 8.78451 | 98.85236 | 13761 ft | 386 kts | 217° |
| 2026-05-06 08:14 | 8.76364 | 98.83541 | 13528 ft | 384 kts | 217° |
| 2026-05-06 08:14 | 8.74282 | 98.81852 | 13266 ft | 383 kts | 217° |
| 2026-05-06 08:14 | 8.72210 | 98.80165 | 13012 ft | 382 kts | 217° |
| 2026-05-06 08:14 | 8.70145 | 98.78484 | 12758 ft | 381 kts | 217° |
| 2026-05-06 08:15 | 8.68086 | 98.76809 | 12508 ft | 379 kts | 217° |
| 2026-05-06 08:15 | 8.66037 | 98.75142 | 12252 ft | 377 kts | 217° |
| 2026-05-06 08:15 | 8.64011 | 98.73493 | 11851 ft | 371 kts | 217° |
| 2026-05-06 08:15 | 8.62014 | 98.71868 | 11340 ft | 367 kts | 217° |
| 2026-05-06 08:16 | 8.60041 | 98.70263 | 10965 ft | 360 kts | 217° |
| 2026-05-06 08:16 | 8.58106 | 98.68681 | 10539 ft | 357 kts | 218° |
| 2026-05-06 08:16 | 8.56218 | 98.67128 | 10370 ft | 342 kts | 217° |
| 2026-05-06 08:16 | 8.54402 | 98.65656 | 10233 ft | 327 kts | 217° |
| 2026-05-06 08:17 | 8.52663 | 98.64251 | 10101 ft | 314 kts | 217° |
| 2026-05-06 08:17 | 8.51013 | 98.62871 | 9963 ft | 302 kts | 221° |
| 2026-05-06 08:17 | 8.49710 | 98.61212 | 9869 ft | 306 kts | 236° |
| 2026-05-06 08:17 | 8.48984 | 98.59994 | 9807 ft | 308 kts | 238° |
| 2026-05-06 08:18 | 8.47550 | 98.57480 | 9592 ft | 308 kts | 239° |
| 2026-05-06 08:18 | 8.46486 | 98.55605 | 9480 ft | 309 kts | 238° |
| 2026-05-06 08:18 | 8.45776 | 98.54363 | 9357 ft | 307 kts | 239° |
| 2026-05-06 08:18 | 8.44705 | 98.52495 | 9237 ft | 308 kts | 238° |
| 2026-05-06 08:19 | 8.43634 | 98.50635 | 9099 ft | 307 kts | 238° |
| 2026-05-06 08:19 | 8.42215 | 98.48168 | 8900 ft | 306 kts | 238° |
| 2026-05-06 08:19 | 8.41146 | 98.46312 | 8769 ft | 306 kts | 238° |
| 2026-05-06 08:19 | 8.40081 | 98.44461 | 8619 ft | 305 kts | 238° |
| 2026-05-06 08:20 | 8.39363 | 98.43212 | 8524 ft | 304 kts | 238° |
| 2026-05-06 08:20 | 8.38301 | 98.41367 | 8386 ft | 304 kts | 238° |
| 2026-05-06 08:20 | 8.37240 | 98.39526 | 8245 ft | 303 kts | 238° |
| 2026-05-06 08:20 | 8.36181 | 98.37689 | 8110 ft | 302 kts | 238° |
| 2026-05-06 08:21 | 8.35141 | 98.35884 | 7988 ft | 301 kts | 238° |
| 2026-05-06 08:21 | 8.34073 | 98.34032 | 7818 ft | 301 kts | 238° |
| 2026-05-06 08:21 | 8.33039 | 98.32235 | 7685 ft | 300 kts | 238° |
| 2026-05-06 08:21 | 8.31990 | 98.30413 | 7551 ft | 300 kts | 238° |
| 2026-05-06 08:22 | 8.30943 | 98.28594 | 7419 ft | 299 kts | 238° |
| 2026-05-06 08:22 | 8.29897 | 98.26783 | 7276 ft | 298 kts | 238° |
| 2026-05-06 08:22 | 8.28855 | 98.24977 | 7135 ft | 297 kts | 238° |
| 2026-05-06 08:22 | 8.27813 | 98.23173 | 7013 ft | 297 kts | 238° |
| 2026-05-06 08:23 | 8.26777 | 98.21377 | 6878 ft | 296 kts | 238° |
| 2026-05-06 08:23 | 8.25742 | 98.19585 | 6721 ft | 295 kts | 238° |
| 2026-05-06 08:23 | 8.24711 | 98.17797 | 6596 ft | 295 kts | 238° |
| 2026-05-06 08:23 | 8.23681 | 98.16012 | 6456 ft | 294 kts | 238° |
| 2026-05-06 08:24 | 8.22650 | 98.14226 | 6329 ft | 293 kts | 238° |
| 2026-05-06 08:24 | 8.21622 | 98.12448 | 6188 ft | 294 kts | 238° |
| 2026-05-06 08:24 | 8.20597 | 98.10671 | 6051 ft | 293 kts | 238° |
| 2026-05-06 08:24 | 8.19755 | 98.08805 | 5919 ft | 293 kts | 254° |
| 2026-05-06 08:25 | 8.19356 | 98.06786 | 5780 ft | 293 kts | 261° |
| 2026-05-06 08:25 | 8.19057 | 98.04757 | 5646 ft | 290 kts | 261° |
| 2026-05-06 08:25 | 8.18475 | 98.02875 | 5501 ft | 275 kts | 237° |
| 2026-05-06 08:25 | 8.17141 | 98.01608 | 5379 ft | 261 kts | 204° |
| 2026-05-06 08:26 | 8.15406 | 98.01220 | 5280 ft | 255 kts | 176° |
| 2026-05-06 08:26 | 8.13639 | 98.01341 | 5143 ft | 255 kts | 172° |
| 2026-05-06 08:26 | 8.11875 | 98.01583 | 5090 ft | 259 kts | 165° |
| 2026-05-06 08:26 | 8.10227 | 98.02251 | 5074 ft | 250 kts | 145° |
| 2026-05-06 08:27 | 8.09057 | 98.03444 | 4940 ft | 234 kts | 116° |
| 2026-05-06 08:27 | 8.08620 | 98.04981 | 4689 ft | 227 kts | 91° |
| 2026-05-06 08:27 | 8.08942 | 98.06509 | 4378 ft | 224 kts | 64° |
| 2026-05-06 08:27 | 8.09930 | 98.07709 | 4078 ft | 223 kts | 39° |
| 2026-05-06 08:28 | 8.11139 | 98.08671 | 3783 ft | 219 kts | 47° |
| 2026-05-06 08:28 | 8.11865 | 98.09979 | 3294 ft | 222 kts | 74° |
| 2026-05-06 08:28 | 8.12476 | 98.11456 | 2772 ft | 227 kts | 66° |
| 2026-05-06 08:28 | 8.12802 | 98.12952 | 2271 ft | 220 kts | 95° |
| 2026-05-06 08:29 | 8.12426 | 98.14416 | 2045 ft | 206 kts | 111° |
| 2026-05-06 08:29 | 8.11954 | 98.15742 | 2059 ft | 203 kts | 103° |
| 2026-05-06 08:29 | 8.11686 | 98.17208 | 2043 ft | 218 kts | 97° |
| 2026-05-06 08:29 | 8.11478 | 98.18705 | 1980 ft | 219 kts | 96° |
| 2026-05-06 08:30 | 8.11286 | 98.20227 | 1806 ft | 218 kts | 96° |
| 2026-05-06 08:30 | 8.11102 | 98.21746 | 1650 ft | 217 kts | 96° |
| 2026-05-06 08:30 | 8.10923 | 98.23241 | 1383 ft | 212 kts | 96° |
| 2026-05-06 08:30 | 8.10760 | 98.24702 | 1030 ft | 208 kts | 93° |
| 2026-05-06 08:31 | 8.10793 | 98.26100 | 825 ft | 189 kts | 84° |
| 2026-05-06 08:31 | 8.10907 | 98.27363 | 633 ft | 174 kts | 83° |
| 2026-05-06 08:31 | 8.11022 | 98.28535 | 390 ft | 162 kts | 82° |
| 2026-05-06 08:31 | 8.11128 | 98.29615 | 220 ft | 150 kts | 83° |
| 2026-05-06 08:32 | 8.11227 | 98.30625 | 44 ft | 140 kts | 86° |
| 2026-05-06 08:32 | 8.11304 | 98.31483 | 43 ft | 91 kts | 84° |
| 2026-05-06 08:32 | 8.11337 | 98.31837 | 53 ft | 28 kts | 84° |
| 2026-05-06 08:32 | 8.11358 | 98.32060 | 65 ft | 36 kts | 85° |
| 2026-05-06 08:33 | 8.11371 | 98.32214 | 75 ft | 21 kts | 88° |
| 2026-05-06 08:33 | 8.11355 | 98.32330 | 84 ft | 14 kts | 105° |
| 2026-05-06 08:33 | 8.11332 | 98.32398 | 86 ft | 4 kts | 115° |
| 2026-05-06 08:33 | 8.11282 | 98.32424 | 87 ft | 7 kts | 210° |
| 2026-05-06 08:34 | 8.11241 | 98.32363 | 83 ft | 1 kts | 262° |
| 2026-05-06 08:34 | 8.11230 | 98.32156 | 72 ft | 16 kts | 264° |
| 2026-05-06 08:34 | 8.11218 | 98.32028 | 58 ft | 20 kts | 264° |
| 2026-05-06 08:35 | 8.11206 | 98.31898 | 55 ft | 21 kts | 264° |
| 2026-05-06 08:35 | 8.11191 | 98.31745 | 52 ft | 18 kts | 264° |
| 2026-05-06 08:35 | 8.11178 | 98.31599 | 44 ft | 24 kts | 265° |
| 2026-05-06 08:35 | 8.11164 | 98.31447 | 42 ft | 22 kts | 264° |
| 2026-05-06 08:36 | 8.11148 | 98.31281 | 38 ft | 26 kts | 264° |
| 2026-05-06 08:36 | 8.11136 | 98.31149 | 36 ft | 17 kts | 265° |
| 2026-05-06 08:36 | 8.11124 | 98.31024 | 36 ft | 19 kts | 264° |
| 2026-05-06 08:36 | 8.11085 | 98.30898 | 35 ft | 18 kts | 262° |
| 2026-05-06 08:37 | 8.11072 | 98.30765 | 35 ft | 20 kts | 264° |
| 2026-05-06 08:37 | 8.11060 | 98.30632 | 34 ft | 10 kts | 264° |
| 2026-05-06 08:37 | 8.11053 | 98.30560 | 34 ft | 12 kts | 265° |
| 2026-05-06 08:37 | 8.11020 | 98.30488 | 33 ft | 12 kts | 210° |
| 2026-05-06 08:38 | 8.10934 | 98.30464 | 33 ft | 14 kts | 194° |
| 2026-05-06 08:38 | 8.10830 | 98.30436 | 33 ft | 17 kts | 194° |
| 2026-05-06 08:38 | 8.10764 | 98.30419 | 33 ft | 0 kts | 194° |
| 2026-05-06 08:38 | 8.10750 | 98.30415 | 33 ft | 7 kts | 194° |
| 2026-05-06 08:39 | 8.10699 | 98.30401 | 33 ft | 8 kts | 195° |
| 2026-05-06 08:39 | 8.10675 | 98.30413 | 33 ft | 4 kts | 129° |
| 2026-05-06 08:39 | 8.10665 | 98.30436 | 33 ft | 0 kts | 107° |
| 2026-05-06 08:39 | 8.10662 | 98.30446 | 33 ft | 3 kts | 107° |
| 2026-05-06 08:40 | 8.10658 | 98.30462 | 33 ft | 1 kts | 106° |
| 2026-05-06 08:40 | 8.10656 | 98.30468 | 33 ft | 1 kts | 105° |
| 2026-05-06 08:40 | 8.10655 | 98.30470 | 33 ft | 0 kts | 105° |
| 2026-05-06 08:40 | 8.10655 | 98.30474 | 33 ft | 0 kts | 105° |
| 2026-05-06 08:41 | 8.10654 | 98.30475 | 33 ft | 0 kts | 105° |
| 2026-05-06 08:41 | 8.10654 | 98.30476 | 33 ft | 0 kts | 105° |
| 2026-05-06 08:41 | 8.10653 | 98.30478 | 33 ft | 0 kts | 105° |